Time;durP1;ratioP1;P1;durP2;ratioP2;P2;SDS_P1;SDS_P2;PMS_P1;PMS_P2;Temp;Humidity;BMP_temperature;BMP_pressure;BME280_temperature;BME280_humidity;BME280_pressure;Samples;Min_cycle;Max_cycle;Signal;HPM_P1;HPM_P2
2021/03/26 10:14:24;;;;;;;105.90;57.35;;;;;;;14.96;75.29;101013.23;11177121;77;26704;-79
2021/03/26 10:29:41;;;;;;;90.17;50.87;;;;;;;15.99;71.78;101018.28;10244237;82;99453;-76
2021/03/26 10:45:06;;;;;;;87.47;47.45;;;;;;;16.82;67.91;101011.69;10052016;86;99477;-80
2021/03/26 11:00:21;;;;;;;63.35;37.65;;;;;;;18.13;63.71;101015.65;10236723;85;99352;-83
2021/03/26 11:15:30;;;;;;;68.28;40.38;;;;;;;18.43;59.58;100998.17;10216591;86;99496;-77
2021/03/26 11:31:12;;;;;;;67.15;38.75;;;;;;;18.92;57.58;100976.45;10123964;86;99515;-76
2021/03/26 11:46:20;;;;;;;72.95;43.78;;;;;;;18.78;56.46;100967.38;10112474;86;99054;-81
2021/03/26 12:01:29;;;;;;;67.87;39.38;;;;;;;18.20;55.47;100952.93;10105964;86;99214;-81
2021/03/26 12:16:39;;;;;;;73.20;42.63;;;;;;;16.95;55.76;100940.56;10115186;86;99377;-81
2021/03/26 12:31:59;;;;;;;77.32;46.60;;;;;;;18.32;55.98;100932.16;10118241;86;99482;-81
2021/03/26 12:47:21;;;;;;;81.40;44.67;;;;;;;18.11;55.17;100922.91;10121324;85;99189;-79
2021/03/26 13:02:29;;;;;;;168.80;70.17;;;;;;;19.12;54.60;100905.91;10040575;87;99293;-77
2021/03/26 13:17:35;;;;;;;249.45;114.55;;;;;;;18.74;54.73;100900.44;10012956;87;99327;-77
2021/03/26 13:32:46;;;;;;;61.63;35.33;;;;;;;17.95;55.25;100893.75;10030040;87;99755;-78
2021/03/26 13:47:58;;;;;;;68.17;43.02;;;;;;;17.30;54.03;100891.41;9983610;88;99427;-80
2021/03/26 14:03:08;;;;;;;67.53;34.67;;;;;;;16.76;55.76;100889.13;9984963;86;98869;-80
2021/03/26 14:18:19;;;;;;;45.63;26.62;;;;;;;19.70;52.51;100880.14;9984496;86;99025;-81
2021/03/26 14:34:01;;;;;;;56.18;30.25;;;;;;;22.46;46.53;100875.77;10118708;86;99165;-80
2021/03/26 14:49:16;;;;;;;43.58;24.85;;;;;;;22.97;43.96;100877.16;10038549;86;98951;-80
2021/03/26 15:04:25;;;;;;;74.97;35.85;;;;;;;20.36;46.41;100868.81;10133826;86;98929;-77
2021/03/26 15:19:32;;;;;;;62.20;31.20;;;;;;;20.10;48.59;100863.47;10082575;86;98946;-76
2021/03/26 15:34:41;;;;;;;85.92;44.30;;;;;;;22.55;45.16;100859.88;9982245;88;99379;-77
2021/03/26 15:49:51;;;;;;;58.70;32.13;;;;;;;21.56;44.21;100863.11;10006538;87;98720;-76
2021/03/26 16:05:43;;;;;;;108.00;46.00;;;;;;;20.15;46.91;100846.11;9983191;87;99290;-76
2021/03/26 16:21:02;;;;;;;167.93;68.78;;;;;;;19.27;50.33;100834.66;10023948;87;99431;-76
2021/03/26 16:36:41;;;;;;;276.77;109.20;;;;;;;19.30;50.61;100830.30;10066398;87;99428;-82
2021/03/26 16:52:14;;;;;;;;;;;;;;;17.44;52.65;100830.27;10076517;87;99536;-83
2021/03/26 17:07:55;;;;;;;238.00;127.10;;;;;;;15.08;56.59;100833.70;10074010;87;83985;-83
2021/03/26 17:23:45;;;;;;;214.68;100.20;;;;;;;13.53;61.89;100839.55;10070801;87;99839;-87
2021/03/26 17:39:02;;;;;;;199.05;94.87;;;;;;;12.57;67.19;100838.83;10064765;87;99600;-82
2021/03/26 17:54:48;;;;;;;498.97;260.55;;;;;;;11.98;72.27;100833.83;10070976;87;99427;-82
2021/03/26 18:10:28;;;;;;;230.55;114.12;;;;;;;11.49;75.18;100839.63;10069635;87;99173;-82
2021/03/26 18:26:12;;;;;;;187.68;81.50;;;;;;;11.02;78.48;100844.36;10111555;86;99691;-81
2021/03/26 18:42:17;;;;;;;249.25;127.60;;;;;;;10.73;82.29;100854.09;10142929;86;99567;-78
2021/03/26 18:57:27;;;;;;;202.35;87.95;;;;;;;10.42;87.04;100849.12;10144978;86;99635;-79
2021/03/26 19:12:40;;;;;;;180.15;80.72;;;;;;;10.07;91.00;100852.20;10154216;86;99580;-79
2021/03/26 19:28:24;;;;;;;199.38;89.60;;;;;;;9.75;92.36;100846.32;10146668;85;99168;-79
2021/03/26 19:43:35;;;;;;;156.10;68.97;;;;;;;9.72;96.20;100830.81;10146216;86;99345;-79
2021/03/26 19:58:55;;;;;;;145.90;69.03;;;;;;;9.42;100.00;100828.27;10151572;86;99252;-79
2021/03/26 20:14:13;;;;;;;209.07;93.72;;;;;;;9.14;100.00;100823.73;10150547;86;99473;-79
2021/03/26 20:29:27;;;;;;;162.77;74.33;;;;;;;8.83;100.00;100812.07;10152342;86;99562;-81
2021/03/26 20:44:40;;;;;;;126.82;59.40;;;;;;;8.66;100.00;100804.13;10159361;86;99557;-77
2021/03/26 20:59:52;;;;;;;140.10;63.70;;;;;;;8.54;100.00;100804.98;10176704;86;99655;-77
2021/03/26 21:15:05;;;;;;;135.35;58.23;;;;;;;8.35;100.00;100802.34;10158808;86;99581;-78
2021/03/26 21:30:47;;;;;;;98.20;47.08;;;;;;;8.22;99.83;100805.00;10148897;86;99561;-78
2021/03/26 21:46:05;;;;;;;96.02;45.12;;;;;;;8.22;97.51;100803.70;10162240;86;99084;-78
2021/03/26 22:01:22;;;;;;;86.77;41.43;;;;;;;8.03;96.78;100792.36;10173704;86;99111;-78
2021/03/26 22:16:47;;;;;;;91.40;43.60;;;;;;;8.19;94.25;100792.13;10175291;86;99124;-78
2021/03/26 22:32:03;;;;;;;92.95;41.80;;;;;;;8.41;89.09;100771.84;10149009;86;99050;-77
2021/03/26 22:47:35;;;;;;;84.70;39.45;;;;;;;8.37;87.31;100764.31;10142595;86;99290;-76
2021/03/26 23:02:44;;;;;;;82.02;39.23;;;;;;;8.03;87.57;100763.63;10176000;86;98648;-77
2021/03/26 23:17:54;;;;;;;89.10;42.58;;;;;;;7.72;88.06;100754.00;10172989;86;98899;-85
2021/03/26 23:33:04;;;;;;;88.97;41.25;;;;;;;7.44;88.98;100749.36;10185377;86;99215;-85
2021/03/26 23:48:17;;;;;;;79.80;39.48;;;;;;;7.30;89.40;100737.70;10191163;86;99010;-86
